Time;durP1;ratioP1;P1;durP2;ratioP2;P2;SDS_P1;SDS_P2;PMS_P1;PMS_P2;Temp;Humidity;BMP_temperature;BMP_pressure;BME280_temperature;BME280_humidity;BME280_pressure;Samples;Min_cycle;Max_cycle;Signal;HPM_P1;HPM_P2
2022/05/12 00:00:55;;;;;;;4.88;2.33;;;;;;;14.13;97.79;99844.44;5159849;27;20030;-81
2022/05/12 00:03:20;;;;;;;6.00;1.90;;;;;;;14.13;96.49;99847.16;5160139;27;20049;-82
2022/05/12 00:05:46;;;;;;;6.40;2.00;;;;;;;14.11;96.22;99849.28;5178072;27;20038;-82
2022/05/12 00:08:12;;;;;;;9.23;2.35;;;;;;;14.10;96.62;99852.22;5178207;27;20037;-80
2022/05/12 00:10:40;;;;;;;;;;;;;;;14.26;96.89;99867.72;5159734;27;20384;-81
2022/05/12 00:13:07;;;;;;;5.00;2.53;;;;;;;14.05;96.60;99879.22;5175663;27;19960;-79
2022/05/12 00:15:34;;;;;;;5.82;2.63;;;;;;;14.09;96.80;99870.38;5175886;27;20050;-78
2022/05/12 00:18:04;;;;;;;7.28;3.35;;;;;;;14.03;96.74;99868.63;5176177;27;20120;-79
2022/05/12 00:20:32;;;;;;;8.48;2.97;;;;;;;13.99;96.73;99878.28;5176758;27;20041;-81
2022/05/12 00:23:30;;;;;;;6.65;2.72;;;;;;;13.86;96.10;99881.28;5171260;27;20033;-79
2022/05/12 00:25:55;;;;;;;;;;;;;;;13.84;96.39;99884.22;5117411;27;20446;-79
2022/05/12 00:28:24;;;;;;;6.90;2.67;;;;;;;13.78;95.33;99889.78;5171424;27;19928;-79
2022/05/12 00:30:51;;;;;;;8.65;1.98;;;;;;;13.68;93.13;99893.06;5169163;27;20023;-80
2022/05/12 00:33:20;;;;;;;7.53;2.80;;;;;;;13.61;91.91;99878.88;5169852;27;20031;-79
2022/05/12 00:35:46;;;;;;;5.82;2.80;;;;;;;13.55;91.19;99888.75;5150711;27;20027;-78
2022/05/12 00:38:11;;;;;;;5.43;2.00;;;;;;;13.58;91.19;99890.16;5170128;27;20023;-80
2022/05/12 00:40:43;;;;;;;7.90;2.20;;;;;;;13.53;91.07;99890.88;5173006;27;20034;-81
2022/05/12 00:43:37;;;;;;;6.70;1.98;;;;;;;13.44;91.01;99894.97;5169217;27;20034;-80
2022/05/12 00:46:09;;;;;;;6.43;2.35;;;;;;;13.36;90.60;99903.47;5171673;27;20031;-80
2022/05/12 00:48:35;;;;;;;5.25;2.10;;;;;;;13.35;90.88;99909.13;5166683;27;20095;-81
2022/05/12 00:51:01;;;;;;;8.95;2.72;;;;;;;13.29;90.67;99907.34;5172445;27;20381;-81
2022/05/12 00:53:30;;;;;;;4.82;2.47;;;;;;;13.26;89.63;99905.91;5166673;27;20155;-81
2022/05/12 00:55:56;;;;;;;5.55;2.50;;;;;;;13.24;88.58;99913.47;5168678;27;20082;-82
2022/05/12 00:58:22;;;;;;;;;;;;;;;13.17;88.33;99913.56;5147097;27;20042;-80
2022/05/12 01:00:47;;;;;;;4.20;1.90;;;;;;;13.14;88.96;99922.13;5163027;27;19966;-81
2022/05/12 01:03:19;;;;;;;4.13;2.00;;;;;;;13.06;89.37;99929.78;5164986;27;20060;-79
2022/05/12 01:05:45;;;;;;;4.35;2.03;;;;;;;13.02;89.14;99936.69;5163420;27;20064;-81
2022/05/12 01:08:12;;;;;;;;;;;;;;;12.98;86.89;99935.50;5141876;27;20466;-78
2022/05/12 01:10:39;;;;;;;4.80;2.17;;;;;;;13.06;87.43;99943.31;5159164;27;19937;-79
2022/05/12 01:13:05;;;;;;;4.88;1.80;;;;;;;12.90;85.81;99949.38;5159943;27;20026;-79
2022/05/12 01:15:32;;;;;;;7.15;2.25;;;;;;;12.75;85.98;99952.50;5160033;27;20030;-78
2022/05/12 01:18:17;;;;;;;4.47;1.88;;;;;;;12.72;85.13;99961.09;5161660;27;20031;-79
2022/05/12 01:20:44;;;;;;;4.03;1.52;;;;;;;12.66;84.52;99960.13;5163011;27;20026;-77
2022/05/12 01:23:30;;;;;;;7.03;3.15;;;;;;;12.57;85.23;99969.59;5165664;27;20027;-79
2022/05/12 01:26:09;;;;;;;4.20;1.95;;;;;;;12.59;85.09;99972.88;5163842;27;20086;-79
2022/05/12 01:28:35;;;;;;;6.70;1.73;;;;;;;12.60;84.78;99979.94;5160724;27;20450;-79
2022/05/12 01:31:00;;;;;;;6.43;1.40;;;;;;;12.51;84.45;99975.91;5162317;27;20457;-78
2022/05/12 01:33:26;;;;;;;3.42;1.70;;;;;;;12.53;85.16;99984.63;5161255;27;20083;-78
2022/05/12 01:35:51;;;;;;;4.80;1.60;;;;;;;12.48;84.37;99989.88;5157905;27;20061;-77
2022/05/12 01:38:18;;;;;;;4.50;1.60;;;;;;;12.40;83.76;99990.19;5159334;27;20031;-78
2022/05/12 01:40:44;;;;;;;6.25;1.60;;;;;;;12.35;84.92;99996.28;5141271;27;20268;-78
2022/05/12 01:43:11;;;;;;;8.95;2.05;;;;;;;12.30;83.33;99989.91;5141366;27;20018;-77
2022/05/12 01:45:37;;;;;;;4.72;1.67;;;;;;;12.35;84.93;99995.47;5170367;27;20485;-79
2022/05/12 01:48:04;;;;;;;4.70;1.60;;;;;;;12.27;83.95;99998.47;5171294;27;20034;-78
2022/05/12 01:50:30;;;;;;;5.05;1.75;;;;;;;12.25;83.07;100009.47;5168262;27;20476;-78
2022/05/12 01:52:55;;;;;;;5.13;1.67;;;;;;;12.33;84.42;100009.19;5161149;27;20062;-78
2022/05/12 01:55:23;;;;;;;4.43;1.57;;;;;;;12.23;83.25;100019.69;5159521;27;20026;-78
2022/05/12 01:57:49;;;;;;;4.57;2.10;;;;;;;12.16;82.66;100024.34;5158968;27;20437;-77
2022/05/12 02:00:18;;;;;;;8.20;2.22;;;;;;;12.11;83.55;100033.13;5157492;27;20026;-78
2022/05/12 02:02:44;;;;;;;4.65;1.35;;;;;;;12.02;82.82;100034.44;5158253;27;20408;-78
2022/05/12 02:05:11;;;;;;;4.13;1.50;;;;;;;11.97;82.53;100037.03;5156190;27;20027;-77
2022/05/12 02:07:39;;;;;;;2.80;1.23;;;;;;;11.93;82.46;100049.31;5156634;27;20026;-77
2022/05/12 02:10:07;;;;;;;2.58;1.00;;;;;;;11.90;82.22;100049.75;5156420;27;20031;-78
2022/05/12 02:12:32;;;;;;;3.45;1.10;;;;;;;11.88;82.14;100057.25;5156413;27;20147;-77
2022/05/12 02:14:58;;;;;;;3.03;0.95;;;;;;;12.02;81.52;100053.34;5156586;27;20062;-77
2022/05/12 02:17:23;;;;;;;2.63;1.10;;;;;;;12.16;82.65;100063.00;5157614;27;20525;-78
2022/05/12 02:19:48;;;;;;;4.47;1.20;;;;;;;12.21;82.35;100056.91;5158606;27;20034;-78
2022/05/12 02:22:14;;;;;;;5.17;1.30;;;;;;;12.20;82.13;100063.34;5157075;27;20034;-78
2022/05/12 02:24:39;;;;;;;3.47;1.25;;;;;;;12.11;82.64;100073.63;5157230;27;20117;-78
2022/05/12 02:27:04;;;;;;;4.23;1.10;;;;;;;12.06;83.04;100078.88;5157701;27;20046;-78
2022/05/12 02:29:30;;;;;;;4.38;1.50;;;;;;;12.04;83.00;100074.75;5156980;27;20102;-78
2022/05/12 02:31:55;;;;;;;4.47;1.60;;;;;;;11.92;83.25;100073.81;5158042;27;20035;-78
2022/05/12 02:34:20;;;;;;;3.90;1.37;;;;;;;12.03;84.22;100078.47;5158249;27;20031;-79
2022/05/12 02:36:59;;;;;;;3.67;1.20;;;;;;;12.03;83.54;100086.59;5158940;27;20284;-79
2022/05/12 02:39:27;;;;;;;6.05;1.30;;;;;;;11.97;83.91;100096.44;5159183;27;20456;-79
2022/05/12 02:41:52;;;;;;;3.58;1.20;;;;;;;11.92;83.80;100095.44;5158973;27;20026;-78
2022/05/12 02:44:17;;;;;;;5.37;1.23;;;;;;;11.90;83.88;100103.75;5158866;27;20461;-79
2022/05/12 02:46:42;;;;;;;4.60;1.20;;;;;;;11.93;83.65;100097.91;5140722;27;20031;-79
2022/05/12 02:49:09;;;;;;;3.57;1.37;;;;;;;11.91;83.16;100104.56;5158718;27;20507;-79
2022/05/12 02:51:34;;;;;;;4.32;1.73;;;;;;;12.12;83.96;100113.09;5158392;27;20071;-78
2022/05/12 02:53:59;;;;;;;6.03;1.30;;;;;;;12.33;83.53;100114.56;5158365;27;20113;-79
2022/05/12 02:56:26;;;;;;;7.13;1.67;;;;;;;12.18;81.41;100118.66;5158549;27;20295;-79
2022/05/12 02:58:51;;;;;;;5.53;1.50;;;;;;;12.18;81.95;100116.78;5157254;27;20026;-79
2022/05/12 03:01:17;;;;;;;4.68;1.35;;;;;;;12.14;83.10;100121.81;5158120;27;20427;-81
2022/05/12 03:03:42;;;;;;;2.83;1.00;;;;;;;12.03;82.25;100119.81;5156900;27;20031;-78
2022/05/12 03:06:07;;;;;;;5.77;1.33;;;;;;;12.02;82.59;100120.88;5157669;27;20035;-78
2022/05/12 03:08:33;;;;;;;4.63;1.25;;;;;;;11.89;81.22;100128.25;5157791;27;20126;-78
2022/05/12 03:10:58;;;;;;;3.30;1.40;;;;;;;11.86;81.15;100126.00;5156537;27;20038;-78
2022/05/12 03:13:23;;;;;;;4.53;1.40;;;;;;;11.84;81.46;100120.81;5137888;27;20268;-78
2022/05/12 03:15:49;;;;;;;4.43;1.30;;;;;;;11.75;81.43;100127.50;5140009;27;20121;-78
2022/05/12 03:18:14;;;;;;;7.30;1.38;;;;;;;11.63;82.26;100135.50;5161176;27;20037;-78
2022/05/12 03:20:39;;;;;;;4.87;1.20;;;;;;;11.64;82.72;100139.03;5163924;27;20473;-78
2022/05/12 03:23:05;;;;;;;3.73;1.47;;;;;;;11.60;81.84;100140.50;5160588;27;20106;-77
2022/05/12 03:25:31;;;;;;;5.13;1.35;;;;;;;11.60;82.67;100144.03;5160593;27;20159;-78
2022/05/12 03:27:57;;;;;;;4.25;1.38;;;;;;;11.57;81.89;100146.34;5159938;27;20038;-78
2022/05/12 03:30:24;;;;;;;3.33;1.20;;;;;;;11.58;83.02;100151.50;5161499;27;20123;-78
2022/05/12 03:32:50;;;;;;;3.55;1.00;;;;;;;11.87;81.46;100150.06;5159477;27;20027;-78
2022/05/12 03:35:15;;;;;;;4.93;1.45;;;;;;;11.72;82.89;100165.75;5140546;27;20045;-76
2022/05/12 03:37:41;;;;;;;5.13;1.30;;;;;;;11.69;82.90;100161.59;5159766;27;20041;-79
2022/05/12 03:40:09;;;;;;;2.97;1.27;;;;;;;11.66;82.82;100172.00;5159720;27;20030;-78
2022/05/12 03:42:34;;;;;;;4.90;1.50;;;;;;;11.60;83.77;100168.31;5159477;27;20030;-79
2022/05/12 03:45:00;;;;;;;3.17;1.33;;;;;;;11.54;84.03;100171.88;5160608;27;20034;-79
2022/05/12 03:47:28;;;;;;;7.27;2.33;;;;;;;11.56;83.86;100185.16;5161242;27;20141;-79
2022/05/12 03:50:02;;;;;;;3.35;1.77;;;;;;;11.46;84.27;100188.34;5162006;27;20264;-78
2022/05/12 03:52:28;;;;;;;6.28;1.60;;;;;;;11.51;84.24;100184.97;5160887;27;20121;-80
2022/05/12 03:54:54;;;;;;;4.70;1.88;;;;;;;11.49;84.18;100187.88;5160892;27;20066;-80
2022/05/12 03:57:22;;;;;;;4.38;1.42;;;;;;;11.41;84.29;100185.44;5141277;27;20522;-80
2022/05/12 03:59:48;;;;;;;4.13;1.42;;;;;;;11.42;84.97;100187.13;5159855;27;20066;-80
2022/05/12 04:02:14;;;;;;;;;;;;;;;11.36;85.07;100188.78;5160628;27;20449;-80
2022/05/12 04:04:43;;;;;;;4.43;1.55;;;;;;;11.41;85.03;100193.53;5160390;27;19963;-80
2022/05/12 04:07:11;;;;;;;4.88;1.38;;;;;;;11.38;84.87;100197.50;5160362;27;20494;-81
2022/05/12 04:09:36;;;;;;;7.70;1.35;;;;;;;11.34;85.17;100201.66;5160394;27;20030;-81
2022/05/12 04:12:02;;;;;;;3.90;1.40;;;;;;;11.33;84.80;100205.41;5159112;27;20023;-78
2022/05/12 04:14:27;;;;;;;4.25;1.52;;;;;;;11.33;85.01;100218.88;5158759;27;20023;-79
2022/05/12 04:16:53;;;;;;;3.80;1.70;;;;;;;11.33;84.89;100224.28;5158391;27;20023;-78
2022/05/12 04:19:18;;;;;;;5.47;2.10;;;;;;;11.29;84.97;100222.22;5158444;27;20380;-78
2022/05/12 04:21:43;;;;;;;3.80;1.60;;;;;;;11.31;84.92;100225.53;5158609;27;20256;-78
2022/05/12 04:24:09;;;;;;;5.97;2.00;;;;;;;11.27;85.09;100227.84;5158044;27;20256;-78
2022/05/12 04:26:37;;;;;;;5.25;1.38;;;;;;;11.29;85.12;100231.13;5139660;27;20033;-78
2022/05/12 04:29:04;;;;;;;2.97;1.30;;;;;;;11.28;85.11;100237.59;5140716;27;20054;-78
2022/05/12 04:31:29;;;;;;;7.00;2.42;;;;;;;11.30;85.59;100231.97;5158915;27;20030;-78
2022/05/12 04:36:39;;;;;;;4.78;1.60;;;;;;;11.35;85.73;100243.78;5159290;27;20117;-78
2022/05/12 04:39:06;;;;;;;4.95;1.35;;;;;;;11.39;85.43;100249.59;5160870;27;20058;-79
2022/05/12 04:41:32;;;;;;;5.90;1.65;;;;;;;11.44;84.89;100247.09;5159440;27;20038;-79
2022/05/12 04:43:58;;;;;;;9.00;1.75;;;;;;;11.41;84.74;100250.19;5162054;27;20031;-79
2022/05/12 04:46:25;;;;;;;4.28;1.90;;;;;;;11.42;84.20;100255.38;5142781;27;20034;-80
2022/05/12 04:48:51;;;;;;;4.60;1.70;;;;;;;11.47;84.18;100260.94;5161151;27;20027;-79
2022/05/12 04:51:16;;;;;;;;;;;;;;;11.49;83.91;100263.44;5159497;27;20027;-79
2022/05/12 04:53:42;;;;;;;5.25;1.40;;;;;;;11.54;83.80;100265.50;5159427;27;20353;-80
2022/05/12 04:56:07;;;;;;;4.53;1.80;;;;;;;11.61;83.09;100261.72;5158190;27;20066;-80
2022/05/12 04:58:32;;;;;;;4.57;1.70;;;;;;;11.57;83.46;100265.06;5158985;27;20047;-80
2022/05/12 05:00:58;;;;;;;6.90;2.33;;;;;;;11.58;84.31;100270.25;5158253;27;20031;-80
2022/05/12 05:03:24;;;;;;;5.55;1.95;;;;;;;11.60;83.60;100273.56;5139387;27;20278;-80
2022/05/12 05:05:50;;;;;;;;;;;;;;;11.61;83.79;100279.78;5158494;27;20031;-80
2022/05/12 05:08:20;;;;;;;5.57;1.90;;;;;;;11.61;83.22;100285.19;5158418;27;19922;-80
2022/05/12 05:10:46;;;;;;;7.60;2.08;;;;;;;11.64;83.75;100291.00;5158334;27;20045;-80
2022/05/12 05:13:12;;;;;;;3.42;1.52;;;;;;;11.68;83.62;100294.06;5139225;27;20393;-80
2022/05/12 05:15:37;;;;;;;7.43;2.70;;;;;;;11.81;82.13;100294.88;5158090;27;20057;-80
2022/05/12 05:18:03;;;;;;;5.03;2.20;;;;;;;11.92;82.10;100295.22;5157977;27;20115;-80
2022/05/12 05:20:30;;;;;;;10.50;3.08;;;;;;;11.91;82.15;100310.59;5157837;27;20058;-80
2022/05/12 05:22:56;;;;;;;4.60;1.83;;;;;;;11.99;82.44;100312.22;5139149;27;20102;-80
2022/05/12 05:25:22;;;;;;;8.52;2.50;;;;;;;12.12;81.66;100310.25;5157640;27;20034;-81
2022/05/12 05:27:49;;;;;;;9.93;3.33;;;;;;;12.16;81.10;100308.78;5158601;27;20034;-80
2022/05/12 05:30:18;;;;;;;5.88;2.42;;;;;;;12.17;81.15;100312.31;5140302;27;20030;-80
2022/05/12 05:32:44;;;;;;;7.32;2.47;;;;;;;12.27;80.86;100306.44;5157946;27;20033;-79
2022/05/12 05:35:12;;;;;;;5.97;2.10;;;;;;;12.28;80.84;100313.47;5158074;27;20042;-79
2022/05/12 05:37:38;;;;;;;5.75;2.15;;;;;;;12.27;81.36;100322.63;5157410;27;20023;-79
2022/05/12 05:40:05;;;;;;;5.60;2.15;;;;;;;12.36;80.98;100327.53;5140764;27;20449;-78
2022/05/12 05:42:30;;;;;;;7.38;1.92;;;;;;;12.58;80.32;100338.81;5158051;27;20393;-80
2022/05/12 05:44:55;;;;;;;7.03;2.08;;;;;;;12.64;80.06;100347.94;5158123;27;20027;-80
2022/05/12 05:47:21;;;;;;;5.63;2.40;;;;;;;12.74;80.11;100342.84;5139614;27;20113;-80
2022/05/12 05:49:47;;;;;;;5.30;2.10;;;;;;;12.71;79.65;100338.72;5158468;27;20035;-82
2022/05/12 05:54:57;;;;;;;4.60;1.65;;;;;;;12.79;78.70;100351.13;5158657;27;20038;-81
2022/05/12 05:57:24;;;;;;;6.77;2.30;;;;;;;12.88;78.99;100357.09;5157627;27;20400;-80
2022/05/12 05:59:51;;;;;;;4.55;1.95;;;;;;;12.91;78.13;100359.34;5157952;27;20300;-81
2022/05/12 06:02:16;;;;;;;8.30;2.33;;;;;;;12.91;78.93;100356.63;5158686;27;20023;-81
2022/05/12 06:04:41;;;;;;;6.18;2.10;;;;;;;12.89;79.27;100361.47;5157968;27;20034;-79
2022/05/12 06:07:07;;;;;;;5.90;2.17;;;;;;;13.00;78.81;100366.13;5139408;27;20034;-80
2022/05/12 06:09:32;;;;;;;6.30;2.40;;;;;;;13.12;77.42;100376.00;5140177;27;20253;-80
2022/05/12 06:11:59;;;;;;;4.97;1.83;;;;;;;13.24;77.17;100365.31;5140710;27;20476;-81
2022/05/12 06:14:26;;;;;;;3.40;1.45;;;;;;;13.25;77.30;100363.44;5158763;27;20244;-81
2022/05/12 06:16:52;;;;;;;5.43;1.83;;;;;;;13.33;76.40;100365.84;5139420;27;20038;-82
2022/05/12 06:19:17;;;;;;;5.90;2.00;;;;;;;13.43;75.39;100363.47;5159568;27;20027;-81
2022/05/12 06:21:43;;;;;;;3.67;1.42;;;;;;;13.70;74.79;100369.38;5159182;27;20030;-81
2022/05/12 06:24:09;;;;;;;4.40;1.70;;;;;;;14.25;72.69;100376.38;5161108;27;20030;-84
2022/05/12 06:26:34;;;;;;;4.28;1.77;;;;;;;14.88;70.23;100383.97;5161937;27;20027;-82
2022/05/12 06:29:01;;;;;;;5.15;1.88;;;;;;;14.87;69.83;100389.63;5143608;27;20037;-81
2022/05/12 06:31:32;;;;;;;4.32;1.45;;;;;;;15.42;66.92;100390.13;5161830;27;20034;-82
2022/05/12 06:33:59;;;;;;;5.53;1.77;;;;;;;15.89;66.02;100396.34;5158706;27;20034;-81
2022/05/12 06:36:24;;;;;;;;;;;;;;;16.53;61.34;100390.78;5159028;27;20076;-83
2022/05/12 06:38:50;;;;;;;3.45;1.25;;;;;;;17.27;60.25;100391.47;5158600;27;19915;-82
2022/05/12 06:41:15;;;;;;;;;;;;;;;17.31;60.56;100393.47;5159114;27;20101;-82
2022/05/12 06:43:45;;;;;;;5.28;1.60;;;;;;;17.80;58.88;100388.16;5161004;27;19911;-81
2022/05/12 06:46:12;;;;;;;4.70;1.75;;;;;;;17.92;57.96;100393.47;5161089;27;20027;-82
2022/05/12 06:48:37;;;;;;;3.45;1.50;;;;;;;17.38;59.43;100397.94;5159224;27;20027;-82
2022/05/12 06:51:03;;;;;;;;;;;;;;;16.90;61.22;100402.88;5159534;27;20372;-81
2022/05/12 06:53:29;;;;;;;5.28;1.58;;;;;;;17.84;59.40;100402.13;5158865;27;20348;-81
2022/05/12 06:55:54;;;;;;;;;;;;;;;18.22;56.64;100401.22;5141288;27;20048;-81
2022/05/12 06:58:19;;;;;;;4.10;1.40;;;;;;;17.64;59.19;100398.06;5159948;27;19915;-81
2022/05/12 07:00:45;;;;;;;;;;;;;;;17.44;60.11;100411.34;5159920;27;20125;-80
2022/05/12 07:03:12;;;;;;;9.40;1.90;;;;;;;16.69;61.64;100406.31;5157970;27;19907;-78
2022/05/12 07:05:39;;;;;;;7.15;2.33;;;;;;;16.64;62.56;100407.09;5142215;27;20045;-81
2022/05/12 07:08:06;;;;;;;5.72;1.73;;;;;;;16.59;61.61;100406.13;5148271;27;20045;-82
2022/05/12 07:10:32;;;;;;;3.85;1.60;;;;;;;16.11;63.67;100412.00;5168180;27;20113;-82
2022/05/12 07:12:57;;;;;;;;;;;;;;;16.39;63.42;100413.91;5162702;27;20038;-81
2022/05/12 07:15:27;;;;;;;6.28;1.63;;;;;;;16.40;64.08;100410.13;5139539;27;20291;-82
2022/05/12 07:17:55;;;;;;;5.57;2.15;;;;;;;16.36;63.87;100412.50;5140155;27;20030;-82
2022/05/12 07:28:35;;;;;;;8.25;3.40;;;;;;;15.39;66.96;100415.06;5159381;27;20037;-82
2022/05/12 07:31:03;;;;;;;;;;;;;;;15.37;67.18;100422.63;5159332;27;20019;-81
2022/05/12 07:33:39;;;;;;;5.80;2.55;;;;;;;15.65;67.44;100415.66;5159460;27;20338;-81
2022/05/12 07:36:09;;;;;;;;;;;;;;;15.75;65.53;100422.16;5159453;27;20035;-80
2022/05/12 07:38:35;;;;;;;6.18;3.47;;;;;;;15.59;66.30;100420.97;5159148;27;19918;-82
2022/05/12 07:41:01;;;;;;;5.65;2.50;;;;;;;15.80;65.97;100435.00;5158271;27;20035;-82
2022/05/12 07:43:26;;;;;;;;;;;;;;;15.47;64.67;100438.28;5159475;27;20027;-82
2022/05/12 07:45:52;;;;;;;8.53;2.90;;;;;;;15.69;65.01;100436.66;5161972;27;20287;-82
2022/05/12 07:48:19;;;;;;;7.28;2.20;;;;;;;15.38;66.09;100448.69;5140900;27;20271;-82
2022/05/12 07:50:44;;;;;;;5.30;2.63;;;;;;;15.39;66.17;100442.22;5159592;27;20027;-82
2022/05/12 07:53:10;;;;;;;4.68;2.38;;;;;;;15.56;65.29;100437.75;5140916;27;20035;-82
2022/05/12 07:55:35;;;;;;;;;;;;;;;15.67;64.02;100440.69;5160332;27;20049;-82
2022/05/12 07:58:03;;;;;;;6.13;1.90;;;;;;;15.81;63.35;100442.91;5159080;27;20356;-82
2022/05/12 08:00:30;;;;;;;4.22;2.17;;;;;;;15.82;63.42;100439.13;5159842;27;20030;-82
2022/05/12 08:02:56;;;;;;;6.97;2.95;;;;;;;15.86;63.04;100455.78;5160813;27;20023;-82
2022/05/12 08:05:22;;;;;;;5.85;2.80;;;;;;;15.86;64.89;100447.63;5162214;27;20034;-82
2022/05/12 08:07:48;;;;;;;6.72;3.28;;;;;;;15.49;66.78;100452.47;5163387;27;20041;-81
2022/05/12 08:10:14;;;;;;;11.23;5.20;;;;;;;15.52;66.96;100460.97;5162035;27;20114;-82
2022/05/12 08:12:39;;;;;;;;;;;;;;;15.71;66.27;100458.16;5163695;27;20125;-82
2022/05/12 08:15:06;;;;;;;7.60;2.67;;;;;;;15.77;65.57;100455.31;5164401;27;19958;-82
2022/05/12 08:17:35;;;;;;;6.28;2.50;;;;;;;15.96;65.43;100456.81;5165051;27;20022;-82
2022/05/12 08:20:00;;;;;;;4.60;2.63;;;;;;;16.07;63.32;100463.31;5145533;27;20038;-82
2022/05/12 08:22:26;;;;;;;5.57;2.63;;;;;;;15.95;64.08;100457.03;5161317;27;20105;-81
2022/05/12 08:24:51;;;;;;;3.88;2.25;;;;;;;16.47;61.89;100457.03;5162557;27;20520;-82
2022/05/12 08:27:16;;;;;;;;;;;;;;;16.63;60.52;100465.28;5161802;27;20027;-81
2022/05/12 08:29:43;;;;;;;5.93;2.45;;;;;;;16.69;60.57;100466.19;5160801;27;19907;-83
2022/05/12 08:32:08;;;;;;;7.57;3.05;;;;;;;16.65;59.21;100471.31;5162475;27;20126;-82
2022/05/12 08:34:34;;;;;;;5.88;2.65;;;;;;;16.51;60.04;100475.34;5161687;27;20055;-81
2022/05/12 08:36:59;;;;;;;;;;;;;;;16.26;61.66;100475.66;5162554;27;20039;-81
2022/05/12 08:39:24;;;;;;;5.90;2.80;;;;;;;16.25;61.99;100481.34;5142236;27;19987;-82
2022/05/12 08:41:54;;;;;;;;;;;;;;;16.48;61.12;100475.00;5162774;27;20260;-81
2022/05/12 08:44:21;;;;;;;4.93;2.33;;;;;;;16.49;61.63;100473.91;5161865;27;19911;-82
2022/05/12 08:46:53;;;;;;;;;;;;;;;16.64;60.29;100477.00;5143559;27;20034;-81
2022/05/12 08:49:19;;;;;;;5.57;2.53;;;;;;;16.87;59.67;100479.56;5160970;27;19922;-81
2022/05/12 08:51:49;;;;;;;8.65;3.65;;;;;;;16.90;58.08;100484.53;5161199;27;20023;-82
2022/05/12 08:54:18;;;;;;;5.43;2.67;;;;;;;16.86;58.10;100491.53;5161641;27;20103;-82
2022/05/12 08:56:44;;;;;;;9.30;3.92;;;;;;;16.73;58.39;100483.69;5161940;27;20042;-82
2022/05/12 08:59:10;;;;;;;6.85;2.63;;;;;;;16.82;57.42;100470.50;5142916;27;20030;-83
2022/05/12 09:01:38;;;;;;;7.07;3.33;;;;;;;16.79;57.50;100479.16;5161279;27;20041;-80
2022/05/12 09:04:16;;;;;;;7.05;2.63;;;;;;;16.58;58.61;100478.75;5142428;27;20039;-81
2022/05/12 09:06:43;;;;;;;8.40;3.00;;;;;;;16.64;58.40;100475.09;5143534;27;20038;-82
2022/05/12 09:09:26;;;;;;;4.40;2.30;;;;;;;16.85;57.09;100479.00;5161377;27;20033;-83
2022/05/12 09:12:17;;;;;;;5.45;2.30;;;;;;;16.81;57.11;100488.75;5161383;27;20094;-82
2022/05/12 09:14:56;;;;;;;4.07;2.20;;;;;;;16.92;54.73;100471.50;5113217;27;20045;-82
2022/05/12 09:17:24;;;;;;;5.18;2.30;;;;;;;16.77;55.69;100473.97;5161540;27;20480;-83
2022/05/12 09:19:50;;;;;;;6.45;2.20;;;;;;;16.96;55.46;100480.00;5160574;27;20027;-82
2022/05/12 09:22:24;;;;;;;4.85;2.47;;;;;;;16.99;55.48;100479.53;5142992;27;20046;-81
2022/05/12 09:24:50;;;;;;;4.68;2.50;;;;;;;17.19;55.47;100479.06;5142703;27;20087;-83
2022/05/12 09:27:15;;;;;;;6.32;2.47;;;;;;;17.20;55.21;100484.22;5144284;27;20492;-82
2022/05/12 09:29:42;;;;;;;;;;;;;;;17.14;55.84;100482.50;5162716;27;20099;-85
2022/05/12 09:32:08;;;;;;;5.43;2.30;;;;;;;17.16;55.83;100482.28;5162518;27;19913;-82
2022/05/12 09:34:46;;;;;;;;;;;;;;;17.12;55.28;100479.22;5144843;27;20094;-82
2022/05/12 09:37:25;;;;;;;5.05;2.30;;;;;;;17.00;55.36;100486.63;5162220;27;19911;-82
2022/05/12 09:39:53;;;;;;;4.50;1.90;;;;;;;16.85;55.76;100484.44;5142864;27;20117;-84
2022/05/12 09:42:27;;;;;;;6.18;2.53;;;;;;;16.81;55.99;100477.84;5160335;27;20027;-83
2022/05/12 09:45:04;;;;;;;5.90;3.05;;;;;;;16.63;55.80;100483.50;5160847;27;20031;-81
2022/05/12 09:47:30;;;;;;;4.50;2.10;;;;;;;16.55;56.72;100481.13;5162372;27;20034;-82
2022/05/12 09:50:16;;;;;;;6.65;2.75;;;;;;;16.41;57.19;100483.31;5160415;27;20083;-83
2022/05/12 09:52:58;;;;;;;5.80;2.65;;;;;;;16.19;58.05;100480.41;5161299;27;20026;-81
2022/05/12 09:55:39;;;;;;;6.70;2.80;;;;;;;16.17;58.57;100479.81;5141234;27;20023;-82
2022/05/12 09:58:13;;;;;;;8.85;3.85;;;;;;;16.14;58.46;100471.31;5159013;27;20043;-81
2022/05/12 10:00:44;;;;;;;7.50;2.78;;;;;;;16.19;58.42;100479.56;5141778;27;20053;-82
2022/05/12 10:09:24;;;;;;;6.85;3.45;;;;;;;16.59;56.60;100465.97;5159688;27;20134;-81
2022/05/12 10:12:11;;;;;;;5.68;2.97;;;;;;;16.82;56.68;100470.50;5161251;27;20453;-83
2022/05/12 10:14:59;;;;;;;6.03;2.53;;;;;;;16.90;55.38;100461.94;5161648;27;20033;-80
2022/05/12 10:17:44;;;;;;;6.25;2.50;;;;;;;17.10;55.81;100461.47;5145198;27;20031;-82
2022/05/12 10:20:21;;;;;;;5.95;2.97;;;;;;;17.26;53.95;100460.63;5163817;27;20054;-79
2022/05/12 10:22:53;;;;;;;4.70;2.00;;;;;;;17.19;53.67;100468.16;5161402;27;20037;-81
2022/05/12 10:25:27;;;;;;;5.40;2.33;;;;;;;17.03;52.15;100461.63;5141761;27;20090;-81
2022/05/12 10:28:11;;;;;;;4.15;2.00;;;;;;;17.04;51.78;100476.03;5161011;27;20117;-82
2022/05/12 10:30:49;;;;;;;3.72;1.67;;;;;;;16.83;46.41;100462.09;5141427;27;20029;-80
2022/05/12 10:33:36;;;;;;;2.50;1.15;;;;;;;16.98;47.78;100469.72;5158802;27;20453;-81
2022/05/12 10:36:16;;;;;;;3.15;1.13;;;;;;;17.11;47.72;100471.28;5140818;27;20033;-81
2022/05/12 10:39:03;;;;;;;3.58;1.45;;;;;;;17.28;48.77;100464.78;5142714;27;20049;-81
2022/05/12 10:41:33;;;;;;;;;;;;;;;17.34;49.28;100463.78;5160357;27;20437;-80
2022/05/12 10:44:01;;;;;;;4.25;1.70;;;;;;;17.57;49.44;100457.31;5160011;27;19911;-81
2022/05/12 10:46:48;;;;;;;4.25;2.00;;;;;;;17.69;49.49;100466.25;5141499;27;20026;-82
2022/05/12 10:49:27;;;;;;;10.20;2.00;;;;;;;17.80;49.69;100466.38;5160598;27;20031;-82
2022/05/12 10:51:58;;;;;;;4.03;1.58;;;;;;;17.86;46.86;100463.50;5161200;27;20031;-83
2022/05/12 10:54:59;;;;;;;3.15;1.50;;;;;;;17.86;47.25;100465.38;5161227;27;20514;-82
2022/05/12 10:57:58;;;;;;;4.07;1.80;;;;;;;18.19;45.97;100451.63;5142010;27;20456;-82
2022/05/12 11:00:36;;;;;;;6.05;1.52;;;;;;;18.09;45.86;100456.16;5141761;27;20022;-81
2022/05/12 11:03:08;;;;;;;4.63;1.77;;;;;;;18.19;46.46;100453.53;5160646;27;20033;-83
2022/05/12 11:05:39;;;;;;;3.97;1.20;;;;;;;18.18;45.29;100457.34;5142606;27;20033;-81
2022/05/12 11:08:31;;;;;;;3.70;1.30;;;;;;;18.33;43.70;100455.63;5161138;27;20462;-81
2022/05/12 11:11:01;;;;;;;4.32;1.20;;;;;;;18.58;42.22;100451.53;5162985;27;20080;-81
2022/05/12 11:13:43;;;;;;;2.78;1.30;;;;;;;18.70;42.76;100442.13;5154075;27;20034;-82
2022/05/12 11:16:16;;;;;;;4.00;1.40;;;;;;;18.76;43.69;100450.38;5174261;27;20034;-80
2022/05/12 11:18:48;;;;;;;3.92;1.85;;;;;;;18.78;44.72;100448.22;5153671;27;20030;-81
2022/05/12 11:21:23;;;;;;;4.78;2.00;;;;;;;18.76;45.91;100451.22;5170031;27;20027;-83
2022/05/12 11:24:13;;;;;;;3.92;1.50;;;;;;;19.03;44.69;100445.72;5151836;27;20038;-82
2022/05/12 11:26:51;;;;;;;4.10;1.48;;;;;;;19.01;44.71;100447.88;5171090;27;20034;-82
2022/05/12 11:29:45;;;;;;;4.63;1.63;;;;;;;19.04;44.22;100440.00;5167070;27;20023;-82
2022/05/12 11:32:17;;;;;;;3.67;1.33;;;;;;;19.15;43.13;100445.56;5162157;27;20102;-83
2022/05/12 11:34:49;;;;;;;5.47;1.50;;;;;;;19.06;43.36;100445.19;5163366;27;20090;-82
2022/05/12 11:37:40;;;;;;;5.40;1.70;;;;;;;19.06;43.06;100440.56;5164286;27;20051;-83
2022/05/12 11:40:10;;;;;;;3.50;1.60;;;;;;;19.21;42.09;100430.84;5124510;27;20061;-82
2022/05/12 11:45:48;;;;;;;2.75;1.17;;;;;;;19.24;41.66;100427.59;5131548;27;20039;-82
2022/05/12 11:48:44;;;;;;;2.72;1.17;;;;;;;19.35;41.68;100423.84;5128382;27;20034;-82
2022/05/12 11:51:54;;;;;;;2.67;1.00;;;;;;;19.56;40.55;100427.56;5144821;27;20034;-83
2022/05/12 11:54:38;;;;;;;3.58;1.20;;;;;;;19.29;38.29;100425.72;5165631;27;20031;-80
2022/05/12 11:57:20;;;;;;;2.30;0.93;;;;;;;19.62;38.99;100430.06;5162254;27;20050;-82
2022/05/12 11:59:50;;;;;;;2.22;1.00;;;;;;;19.54;39.28;100425.09;5162601;27;20424;-83
2022/05/12 12:02:33;;;;;;;3.22;1.30;;;;;;;19.75;38.74;100415.91;5162638;27;20038;-84
2022/05/12 12:05:00;;;;;;;6.28;1.70;;;;;;;19.79;38.88;100420.88;5163749;27;20023;-83